Time;durP1;ratioP1;P1;durP2;ratioP2;P2;SDS_P1;SDS_P2;PMS_P1;PMS_P2;Temp;Humidity;BMP_temperature;BMP_pressure;BME280_temperature;BME280_humidity;BME280_pressure;Samples;Min_cycle;Max_cycle;Signal;HPM_P1;HPM_P2
2023/07/05 00:01:58;;;;;;;5.00;1.67;;;14.10;99.90;;;;;;5070740;28;20048;-64
2023/07/05 00:04:24;;;;;;;2.28;1.30;;;14.10;99.90;;;;;;5070616;28;20504;-65
2023/07/05 00:06:53;;;;;;;5.28;1.38;;;14.10;99.90;;;;;;5070088;28;20044;-64
2023/07/05 00:09:21;;;;;;;4.63;1.60;;;14.10;99.90;;;;;;5070692;28;20056;-65
2023/07/05 00:11:50;;;;;;;2.22;1.48;;;14.10;99.90;;;;;;5071704;28;20085;-65
2023/07/05 00:14:17;;;;;;;4.97;2.20;;;14.10;99.90;;;;;;5069808;28;20389;-65
2023/07/05 00:16:43;;;;;;;3.05;1.50;;;14.10;99.90;;;;;;5071520;28;20546;-65
2023/07/05 00:19:10;;;;;;;4.13;1.15;;;14.10;99.90;;;;;;5071505;28;20040;-65
2023/07/05 00:21:35;;;;;;;3.88;1.73;;;14.10;99.90;;;;;;5069578;28;20079;-64
2023/07/05 00:24:06;;;;;;;2.65;1.20;;;14.10;99.90;;;;;;5071421;28;20141;-65
2023/07/05 00:26:32;;;;;;;2.60;1.48;;;14.10;99.90;;;;;;5068841;28;20083;-65
2023/07/05 00:29:00;;;;;;;3.50;1.63;;;14.10;99.90;;;;;;5070393;28;20075;-65
2023/07/05 00:31:27;;;;;;;2.08;0.98;;;14.10;99.90;;;;;;5052512;28;20047;-65
2023/07/05 00:33:54;;;;;;;1.98;1.08;;;14.10;99.90;;;;;;5068386;28;20065;-65
2023/07/05 00:36:23;;;;;;;6.53;1.73;;;14.10;99.90;;;;;;5069460;28;20055;-65
2023/07/05 00:38:49;;;;;;;8.30;1.47;;;14.10;99.90;;;;;;5070154;28;20051;-65
2023/07/05 00:41:17;;;;;;;3.58;1.30;;;14.10;99.90;;;;;;5068341;28;20496;-65
2023/07/05 00:43:49;;;;;;;6.18;2.08;;;14.10;99.90;;;;;;5070262;28;20115;-65
2023/07/05 00:46:24;;;;;;;7.38;1.75;;;14.20;99.90;;;;;;5052068;28;20429;-66
2023/07/05 00:49:09;;;;;;;3.33;1.65;;;14.10;99.90;;;;;;5069472;28;20036;-63
2023/07/05 00:51:58;;;;;;;5.07;1.70;;;14.20;99.90;;;;;;5051739;28;20088;-65
2023/07/05 00:54:35;;;;;;;5.05;1.77;;;14.10;99.90;;;;;;5069384;28;20044;-65
2023/07/05 00:57:20;;;;;;;3.33;1.63;;;14.20;99.90;;;;;;5065368;28;20044;-65
2023/07/05 01:00:01;;;;;;;2.88;1.83;;;14.10;99.90;;;;;;5084823;28;20115;-65
2023/07/05 01:02:30;;;;;;;5.60;1.50;;;14.10;99.90;;;;;;5068450;28;20045;-65
2023/07/05 01:04:59;;;;;;;2.83;1.38;;;14.10;99.90;;;;;;5069732;28;20047;-64
2023/07/05 01:07:28;;;;;;;3.38;1.23;;;14.10;99.90;;;;;;5052827;28;20139;-64
2023/07/05 01:09:55;;;;;;;2.45;1.42;;;14.10;99.90;;;;;;5067694;28;20078;-65
2023/07/05 01:12:44;;;;;;;4.22;1.85;;;14.10;99.90;;;;;;5069360;28;20165;-65
2023/07/05 01:15:34;;;;;;;4.50;1.50;;;14.10;99.90;;;;;;5068823;28;20154;-65
2023/07/05 01:18:03;;;;;;;3.13;1.58;;;14.10;99.90;;;;;;5068484;28;20044;-67
2023/07/05 01:20:52;;;;;;;7.07;2.35;;;14.10;99.90;;;;;;5068871;28;20079;-67
2023/07/05 01:23:55;;;;;;;5.70;2.70;;;14.10;99.90;;;;;;5068905;28;20130;-68
2023/07/05 01:26:46;;;;;;;2.90;1.48;;;14.10;99.90;;;;;;5067015;28;20860;-69
2023/07/05 01:29:53;;;;;;;3.47;2.03;;;14.10;99.90;;;;;;5068289;28;20182;-68
2023/07/05 01:32:51;;;;;;;3.83;1.85;;;14.00;99.90;;;;;;5068069;28;20457;-69
2023/07/05 01:35:29;;;;;;;6.45;1.58;;;14.00;99.90;;;;;;5051771;28;20052;-68
2023/07/05 01:38:05;;;;;;;4.22;2.05;;;14.00;99.90;;;;;;5066626;28;20147;-68
2023/07/05 01:40:32;;;;;;;7.70;2.85;;;14.00;99.90;;;;;;5067476;28;20084;-67
2023/07/05 01:43:11;;;;;;;3.42;1.77;;;14.00;99.90;;;;;;5068218;28;20040;-67
2023/07/05 01:45:53;;;;;;;;;;;14.00;99.90;;;;;;5067908;28;20048;-65
2023/07/05 01:48:58;;;;;;;3.42;1.92;;;14.10;99.90;;;;;;5067914;28;20357;-65
2023/07/05 01:51:50;;;;;;;3.40;2.38;;;14.00;99.90;;;;;;5068249;28;20060;-65
2023/07/05 01:54:52;;;;;;;3.47;1.92;;;14.10;99.90;;;;;;5049790;28;20049;-66
2023/07/05 01:57:28;;;;;;;4.70;2.40;;;14.10;99.90;;;;;;5069000;28;20144;-64
2023/07/05 02:00:09;;;;;;;3.92;2.20;;;14.10;99.90;;;;;;5068276;28;20052;-64
2023/07/05 02:02:49;;;;;;;3.83;2.15;;;14.10;99.90;;;;;;5050391;28;20063;-64
2023/07/05 02:05:22;;;;;;;7.90;2.80;;;14.10;99.90;;;;;;5068202;28;20056;-63
2023/07/05 02:07:51;;;;;;;4.13;2.25;;;14.20;99.90;;;;;;5065991;28;20115;-65
2023/07/05 02:10:27;;;;;;;4.07;2.58;;;14.10;99.90;;;;;;5068856;28;20037;-65
2023/07/05 02:13:00;;;;;;;5.43;2.92;;;14.10;99.90;;;;;;5070403;28;20047;-65
2023/07/05 02:15:40;;;;;;;3.72;2.28;;;14.10;99.90;;;;;;5056372;28;20464;-64
2023/07/05 02:18:09;;;;;;;5.32;2.42;;;14.10;99.90;;;;;;5071811;28;20037;-65
2023/07/05 02:20:54;;;;;;;4.72;2.90;;;14.20;99.90;;;;;;5072885;28;20063;-66
2023/07/05 02:23:22;;;;;;;5.65;2.38;;;14.10;99.90;;;;;;5055244;28;20051;-64
2023/07/05 02:25:53;;;;;;;6.55;3.03;;;14.10;99.90;;;;;;5071140;28;20048;-66
2023/07/05 02:28:20;;;;;;;7.90;3.20;;;14.10;99.90;;;;;;5072746;28;20040;-65
2023/07/05 02:30:49;;;;;;;10.52;3.13;;;14.10;99.90;;;;;;5054466;28;20040;-66
2023/07/05 02:33:15;;;;;;;5.47;2.97;;;14.10;99.90;;;;;;5054471;28;20190;-66
2023/07/05 02:35:48;;;;;;;6.27;2.50;;;14.10;99.90;;;;;;5071561;28;20028;-69
2023/07/05 02:38:15;;;;;;;9.63;3.35;;;14.10;99.90;;;;;;5072507;28;20350;-67
2023/07/05 02:40:50;;;;;;;5.40;2.65;;;14.10;99.90;;;;;;5071601;28;20088;-68
2023/07/05 02:43:18;;;;;;;10.18;3.10;;;14.10;99.90;;;;;;5054650;28;20508;-67
2023/07/05 02:45:44;;;;;;;8.15;3.08;;;14.10;99.90;;;;;;5037934;28;20044;-65
2023/07/05 02:48:10;;;;;;;6.97;2.67;;;14.10;99.90;;;;;;5070466;28;20056;-67
2023/07/05 02:50:39;;;;;;;6.35;3.35;;;14.10;99.90;;;;;;5070382;28;20136;-65
2023/07/05 02:53:14;;;;;;;5.05;3.08;;;14.10;99.90;;;;;;5072194;28;20041;-65
2023/07/05 02:55:43;;;;;;;4.57;2.33;;;14.10;99.90;;;;;;5054051;28;20374;-67
2023/07/05 02:58:11;;;;;;;8.13;3.60;;;14.10;99.90;;;;;;5054324;28;20047;-68
2023/07/05 03:00:44;;;;;;;8.35;3.38;;;14.10;99.90;;;;;;5069888;28;20173;-67
2023/07/05 03:03:10;;;;;;;;;;;14.10;99.90;;;;;;5069113;28;20076;-65
2023/07/05 03:05:36;;;;;;;5.88;2.53;;;14.20;99.90;;;;;;5070675;28;19967;-67
2023/07/05 03:08:06;;;;;;;7.35;3.00;;;14.10;99.90;;;;;;5071069;28;20071;-66
2023/07/05 03:10:46;;;;;;;6.60;2.42;;;14.10;99.90;;;;;;5054188;28;20109;-65
2023/07/05 03:13:14;;;;;;;7.43;2.75;;;14.10;99.90;;;;;;5071004;28;20044;-65
2023/07/05 03:15:47;;;;;;;4.95;2.60;;;14.10;99.90;;;;;;5069941;28;20036;-65
2023/07/05 03:18:28;;;;;;;5.07;2.80;;;14.10;99.90;;;;;;5070662;28;20495;-66
2023/07/05 03:20:55;;;;;;;3.80;2.38;;;14.10;99.90;;;;;;5071690;28;20063;-66
2023/07/05 03:23:22;;;;;;;5.13;2.90;;;14.10;99.90;;;;;;5069463;28;20040;-66
2023/07/05 03:26:05;;;;;;;5.13;3.17;;;14.20;99.90;;;;;;5070157;28;20508;-66
2023/07/05 03:28:51;;;;;;;6.95;2.65;;;14.20;99.90;;;;;;5070010;28;20558;-65
2023/07/05 03:31:19;;;;;;;6.25;3.17;;;14.20;99.90;;;;;;5037368;28;20041;-66
2023/07/05 03:33:47;;;;;;;3.65;2.42;;;14.30;99.90;;;;;;5070424;28;20044;-66
2023/07/05 03:36:17;;;;;;;5.97;2.97;;;14.30;99.90;;;;;;5053179;28;20037;-66
2023/07/05 03:38:48;;;;;;;;;;;14.40;99.90;;;;;;5054158;28;20076;-67
2023/07/05 03:41:17;;;;;;;6.07;3.67;;;14.40;99.90;;;;;;5070381;28;19920;-66
2023/07/05 03:43:44;;;;;;;;;;;14.50;99.90;;;;;;5053518;28;20610;-66
2023/07/05 03:46:17;;;;;;;7.72;2.60;;;14.50;99.90;;;;;;5071434;28;20507;-67
2023/07/05 03:48:45;;;;;;;6.78;3.45;;;14.60;99.90;;;;;;5053309;28;20040;-67
2023/07/05 03:51:14;;;;;;;5.13;3.22;;;14.60;99.90;;;;;;5069021;28;20167;-67
2023/07/05 03:53:41;;;;;;;3.80;1.67;;;14.60;99.90;;;;;;5069946;28;20039;-66
2023/07/05 03:56:11;;;;;;;5.50;3.78;;;14.70;99.90;;;;;;5069280;28;20059;-65
2023/07/05 03:58:38;;;;;;;5.25;2.03;;;14.70;99.90;;;;;;5069150;28;20063;-66
2023/07/05 04:01:20;;;;;;;4.20;2.53;;;14.70;99.90;;;;;;5067971;28;20117;-66
2023/07/05 04:04:11;;;;;;;5.90;2.42;;;14.80;99.90;;;;;;5068764;28;20045;-66
2023/07/05 04:06:38;;;;;;;3.95;2.00;;;14.80;99.90;;;;;;5069156;28;20098;-66
2023/07/05 04:09:04;;;;;;;3.88;1.83;;;14.70;99.90;;;;;;5070749;28;20051;-67
2023/07/05 04:11:30;;;;;;;3.75;1.67;;;14.80;99.90;;;;;;5070168;28;20113;-67
2023/07/05 04:14:00;;;;;;;4.90;1.95;;;14.80;99.90;;;;;;5069716;28;20044;-65
2023/07/05 04:16:31;;;;;;;5.65;2.08;;;14.80;99.90;;;;;;5069316;28;20507;-66
2023/07/05 04:18:59;;;;;;;2.53;1.27;;;14.90;99.90;;;;;;5068806;28;20535;-65
2023/07/05 04:21:29;;;;;;;4.10;1.20;;;14.90;99.90;;;;;;5052981;28;20051;-66
2023/07/05 04:23:56;;;;;;;2.85;1.08;;;14.90;99.90;;;;;;5069351;28;20048;-65
2023/07/05 04:26:26;;;;;;;2.00;1.15;;;14.90;99.90;;;;;;5068814;28;20036;-64
2023/07/05 04:28:58;;;;;;;1.50;0.70;;;14.80;99.90;;;;;;5054159;28;20109;-65
2023/07/05 04:31:44;;;;;;;1.45;0.88;;;14.70;99.90;;;;;;5068750;28;20123;-65
2023/07/05 04:34:11;;;;;;;3.80;1.25;;;14.60;99.90;;;;;;5068970;28;20036;-65
2023/07/05 04:36:37;;;;;;;5.32;1.42;;;14.60;99.90;;;;;;5068157;28;20032;-64
2023/07/05 04:39:03;;;;;;;3.53;1.10;;;14.50;99.90;;;;;;5051930;28;20076;-66
2023/07/05 04:41:32;;;;;;;2.05;0.55;;;14.50;99.90;;;;;;5070156;28;20059;-66
2023/07/05 04:43:58;;;;;;;2.17;0.90;;;14.50;99.90;;;;;;5069201;28;20040;-64
2023/07/05 04:46:27;;;;;;;2.65;1.10;;;14.40;99.90;;;;;;5068906;28;20104;-65
2023/07/05 04:48:55;;;;;;;2.80;1.07;;;14.40;99.90;;;;;;5068850;28;20044;-66
2023/07/05 04:51:21;;;;;;;3.17;1.30;;;14.40;99.90;;;;;;5068415;28;20302;-65
2023/07/05 04:53:49;;;;;;;4.30;1.63;;;14.30;99.90;;;;;;5068175;28;20477;-65
2023/07/05 04:56:16;;;;;;;2.63;0.77;;;14.30;99.90;;;;;;5051711;28;20461;-66
2023/07/05 04:58:44;;;;;;;3.15;1.63;;;14.20;99.90;;;;;;5069638;28;20044;-64
2023/07/05 05:01:14;;;;;;;1.58;0.82;;;14.20;99.90;;;;;;5051095;28;20051;-65
2023/07/05 05:03:41;;;;;;;2.80;1.00;;;14.20;99.90;;;;;;5032167;28;20041;-66
2023/07/05 05:06:08;;;;;;;1.45;0.93;;;14.10;99.90;;;;;;5031937;28;20045;-66
2023/07/05 05:08:38;;;;;;;4.32;1.45;;;14.10;99.90;;;;;;5047987;28;20067;-66
2023/07/05 05:11:13;;;;;;;2.35;1.65;;;14.10;99.90;;;;;;5032466;28;20049;-66
2023/07/05 05:13:43;;;;;;;2.45;1.30;;;14.10;99.90;;;;;;5049325;28;20123;-64
2023/07/05 05:16:21;;;;;;;2.22;1.27;;;14.10;99.90;;;;;;5048102;28;20045;-64
2023/07/05 05:18:47;;;;;;;3.80;1.33;;;14.10;99.90;;;;;;5048706;28;20044;-65
2023/07/05 05:21:15;;;;;;;2.08;1.23;;;14.10;99.90;;;;;;5031258;28;20280;-68
2023/07/05 05:23:41;;;;;;;1.33;0.82;;;14.10;99.90;;;;;;5048155;28;20072;-66
2023/07/05 05:26:14;;;;;;;4.18;1.30;;;14.10;99.90;;;;;;5015339;28;20573;-65
2023/07/05 05:28:40;;;;;;;3.55;1.90;;;14.10;99.90;;;;;;5047890;28;20370;-65
2023/07/05 05:31:11;;;;;;;5.85;1.50;;;14.10;99.90;;;;;;5048238;28;20045;-65
2023/07/05 05:33:38;;;;;;;1.92;1.48;;;14.10;99.90;;;;;;5049425;28;20037;-66
2023/07/05 05:36:09;;;;;;;2.15;1.17;;;14.10;99.90;;;;;;5015259;28;20086;-65
2023/07/05 05:38:38;;;;;;;4.28;1.27;;;14.10;99.90;;;;;;5049395;28;20041;-65
2023/07/05 05:41:09;;;;;;;4.00;1.77;;;14.10;99.90;;;;;;5015321;28;20049;-67
2023/07/05 05:43:35;;;;;;;2.00;1.13;;;14.10;99.90;;;;;;5048716;28;20041;-66
2023/07/05 05:46:07;;;;;;;2.95;1.63;;;14.10;99.90;;;;;;5048294;28;20194;-66
2023/07/05 05:48:33;;;;;;;7.22;1.98;;;14.10;99.90;;;;;;5047509;28;20040;-66
2023/07/05 05:51:02;;;;;;;2.13;1.20;;;14.10;99.90;;;;;;5047173;28;20056;-66
2023/07/05 05:53:28;;;;;;;1.98;1.23;;;14.20;99.90;;;;;;5048695;28;20044;-63
2023/07/05 05:55:56;;;;;;;6.15;1.35;;;14.10;99.90;;;;;;5068007;28;20056;-65
2023/07/05 05:58:30;;;;;;;2.67;0.95;;;13.80;99.90;;;;;;5068256;28;20377;-65
2023/07/05 06:01:06;;;;;;;3.17;1.20;;;13.60;99.90;;;;;;5067642;28;20469;-64
2023/07/05 06:03:35;;;;;;;1.75;1.15;;;13.60;99.90;;;;;;5067125;28;20048;-65
2023/07/05 06:06:08;;;;;;;3.53;2.63;;;13.60;99.90;;;;;;5069203;28;20055;-68
2023/07/05 06:08:37;;;;;;;2.30;1.02;;;13.60;99.90;;;;;;5068639;28;20072;-67
2023/07/05 06:11:19;;;;;;;2.03;1.48;;;13.80;99.90;;;;;;5068252;28;20127;-67
2023/07/05 06:13:45;;;;;;;1.95;0.98;;;13.90;99.90;;;;;;5068896;28;20033;-66
2023/07/05 06:16:16;;;;;;;2.80;1.15;;;14.10;99.90;;;;;;5069387;28;20044;-66
2023/07/05 06:18:47;;;;;;;2.35;1.40;;;14.30;99.90;;;;;;5068428;28;20041;-67
2023/07/05 06:21:14;;;;;;;1.00;0.90;;;14.40;99.90;;;;;;5067885;28;20049;-66
2023/07/05 06:23:42;;;;;;;3.03;0.93;;;14.50;99.90;;;;;;5067106;28;20044;-66
2023/07/05 06:26:13;;;;;;;2.17;0.88;;;14.60;99.90;;;;;;5067742;28;20060;-66
2023/07/05 06:28:40;;;;;;;2.20;1.35;;;14.60;99.90;;;;;;5067610;28;20044;-66
2023/07/05 06:31:09;;;;;;;2.55;0.63;;;14.60;99.90;;;;;;5067067;28;20733;-66
2023/07/05 06:33:37;;;;;;;1.40;0.75;;;14.60;99.90;;;;;;5067335;28;20045;-66
2023/07/05 06:36:14;;;;;;;1.10;0.50;;;14.50;99.90;;;;;;5052749;28;20059;-66
2023/07/05 06:38:41;;;;;;;1.45;0.90;;;14.40;99.90;;;;;;5050598;28;20045;-68
2023/07/05 06:41:09;;;;;;;3.20;0.93;;;14.40;99.90;;;;;;5067718;28;20043;-66
2023/07/05 06:43:35;;;;;;;1.75;1.23;;;14.30;99.90;;;;;;5068096;28;20599;-68
2023/07/05 06:46:01;;;;;;;2.67;1.58;;;14.30;99.90;;;;;;5068134;28;20056;-66
2023/07/05 06:48:29;;;;;;;1.90;0.95;;;14.30;99.90;;;;;;5065720;28;20037;-66
2023/07/05 06:50:59;;;;;;;3.50;1.15;;;14.30;99.90;;;;;;5067238;28;20135;-67
2023/07/05 06:53:25;;;;;;;3.25;1.33;;;14.20;99.90;;;;;;5068373;28;20040;-66
2023/07/05 06:55:51;;;;;;;3.15;1.33;;;14.10;99.90;;;;;;5050406;28;20044;-70
2023/07/05 06:58:21;;;;;;;2.45;1.17;;;14.00;99.90;;;;;;5068855;28;20044;-65
2023/07/05 07:00:49;;;;;;;1.55;0.63;;;14.00;99.90;;;;;;5071245;28;20105;-67
2023/07/05 07:03:16;;;;;;;2.00;0.85;;;14.00;99.90;;;;;;5054998;28;20109;-65
2023/07/05 07:05:52;;;;;;;1.38;0.77;;;14.00;99.90;;;;;;5054492;28;20527;-67
2023/07/05 07:08:19;;;;;;;1.25;0.60;;;14.00;99.90;;;;;;5071402;28;20102;-67
2023/07/05 07:10:51;;;;;;;0.45;0.30;;;13.90;99.90;;;;;;5052108;28;20052;-62
2023/07/05 07:13:17;;;;;;;1.15;0.40;;;13.80;99.90;;;;;;5070265;28;20044;-63
2023/07/05 07:15:43;;;;;;;0.80;0.32;;;13.60;99.90;;;;;;5071514;28;20104;-65
2023/07/05 07:18:10;;;;;;;0.68;0.30;;;13.30;99.90;;;;;;5053233;28;20115;-65
2023/07/05 07:20:39;;;;;;;0.30;0.30;;;13.10;99.90;;;;;;5034024;28;20485;-62
2023/07/05 07:23:16;;;;;;;0.30;0.30;;;12.80;99.90;;;;;;5051727;28;20135;-62
2023/07/05 07:25:42;;;;;;;0.40;0.30;;;12.50;99.90;;;;;;5035074;28;20076;-65
2023/07/05 07:28:08;;;;;;;2.97;0.60;;;12.20;99.90;;;;;;5066915;28;20044;-65
2023/07/05 07:30:35;;;;;;;0.82;0.38;;;12.10;99.90;;;;;;5072613;28;20040;-66
2023/07/05 07:33:01;;;;;;;1.65;0.68;;;12.00;99.90;;;;;;5072682;28;20044;-65
2023/07/05 07:35:33;;;;;;;0.52;0.45;;;11.90;99.90;;;;;;5072258;28;20097;-68
2023/07/05 07:37:59;;;;;;;0.38;0.32;;;11.70;99.90;;;;;;5071441;28;20420;-65
2023/07/05 07:40:27;;;;;;;2.40;0.20;;;11.50;99.90;;;;;;5072421;28;20041;-66
2023/07/05 07:42:53;;;;;;;1.65;0.65;;;11.30;99.90;;;;;;5021392;28;20044;-66
2023/07/05 07:45:20;;;;;;;0.30;0.30;;;11.20;99.90;;;;;;5069473;28;20461;-64
2023/07/05 07:47:50;;;;;;;0.25;0.25;;;11.20;99.90;;;;;;5070630;28;20139;-66
2023/07/05 07:50:23;;;;;;;0.40;0.30;;;11.20;99.90;;;;;;5071984;28;20039;-66
2023/07/05 07:52:52;;;;;;;0.15;0.15;;;11.20;99.90;;;;;;5071087;28;20044;-64
2023/07/05 07:55:25;;;;;;;0.30;0.30;;;11.20;99.90;;;;;;5071587;28;20106;-66
2023/07/05 07:57:51;;;;;;;0.10;0.10;;;11.30;99.90;;;;;;5070852;28;20059;-65
2023/07/05 08:00:31;;;;;;;0.17;0.17;;;11.20;99.90;;;;;;5069509;28;20068;-66
2023/07/05 08:02:58;;;;;;;0.22;0.20;;;11.30;99.90;;;;;;5069442;28;20106;-66
2023/07/05 08:05:28;;;;;;;0.73;0.73;;;11.30;99.90;;;;;;5070015;28;20087;-67
2023/07/05 08:07:55;;;;;;;0.10;0.10;;;11.20;99.90;;;;;;5070873;28;20139;-67
2023/07/05 08:10:29;;;;;;;0.88;0.45;;;11.30;99.90;;;;;;5071148;28;20045;-68
2023/07/05 08:12:57;;;;;;;0.20;0.20;;;11.30;99.90;;;;;;5070469;28;20051;-69
2023/07/05 08:15:23;;;;;;;0.20;0.20;;;11.30;99.90;;;;;;5071683;28;20510;-68
2023/07/05 08:17:53;;;;;;;0.28;0.20;;;11.40;99.90;;;;;;5071756;28;20036;-68
2023/07/05 08:20:23;;;;;;;0.25;0.15;;;11.40;99.90;;;;;;5070420;28;20504;-68
2023/07/05 08:22:49;;;;;;;;;;;11.50;99.90;;;;;;5069931;28;20071;-66
2023/07/05 08:25:18;;;;;;;0.22;0.22;;;11.60;99.90;;;;;;5053623;28;20360;-68
2023/07/05 08:27:53;;;;;;;0.20;0.20;;;11.60;99.90;;;;;;5069467;28;20051;-66
2023/07/05 08:30:20;;;;;;;0.63;0.52;;;11.70;99.90;;;;;;5069414;28;20036;-67
2023/07/05 08:32:46;;;;;;;0.20;0.20;;;11.70;99.90;;;;;;5071424;28;20037;-67
2023/07/05 08:35:27;;;;;;;0.40;0.38;;;11.80;99.90;;;;;;5070199;28;20079;-67
2023/07/05 08:37:53;;;;;;;0.85;0.50;;;11.90;99.90;;;;;;5069589;28;20070;-66
2023/07/05 08:40:19;;;;;;;0.60;0.50;;;11.90;99.90;;;;;;5070022;28;20068;-67
2023/07/05 08:43:12;;;;;;;3.60;1.05;;;12.00;99.90;;;;;;5070966;28;20093;-67
2023/07/05 08:45:44;;;;;;;1.45;0.95;;;12.20;99.90;;;;;;5052630;28;20519;-67
2023/07/05 08:48:15;;;;;;;2.45;1.00;;;12.30;99.90;;;;;;5069955;28;20045;-66
2023/07/05 08:50:45;;;;;;;0.40;0.40;;;12.50;99.90;;;;;;5069796;28;20061;-67
2023/07/05 08:53:21;;;;;;;0.32;0.20;;;12.50;99.90;;;;;;5070994;28;20040;-66
2023/07/05 08:56:09;;;;;;;0.20;0.20;;;12.60;99.90;;;;;;5070973;28;20492;-67
2023/07/05 08:59:04;;;;;;;0.20;0.20;;;12.60;99.90;;;;;;5069966;28;20044;-65
2023/07/05 09:01:40;;;;;;;0.40;0.32;;;12.60;99.90;;;;;;5068443;28;20044;-66
2023/07/05 09:04:27;;;;;;;0.43;0.13;;;12.80;99.90;;;;;;5070811;28;20048;-66
2023/07/05 09:07:03;;;;;;;0.20;0.20;;;12.80;99.90;;;;;;5070806;28;20079;-67
2023/07/05 09:09:52;;;;;;;0.90;0.32;;;12.90;99.90;;;;;;5069497;28;20044;-66
2023/07/05 09:12:30;;;;;;;0.10;0.10;;;13.10;99.90;;;;;;5052503;28;20047;-68
2023/07/05 09:15:19;;;;;;;0.20;0.17;;;13.30;99.90;;;;;;5067288;28;20083;-67
2023/07/05 09:18:36;;;;;;;0.13;0.13;;;13.70;99.90;;;;;;5070497;28;20393;-65
2023/07/05 09:21:17;;;;;;;3.10;0.73;;;13.80;99.90;;;;;;5068904;28;20053;-68
2023/07/05 09:23:51;;;;;;;0.20;0.15;;;13.70;99.90;;;;;;5068243;28;20041;-66
2023/07/05 09:26:26;;;;;;;0.43;0.20;;;13.60;99.90;;;;;;5017600;28;20125;-66
2023/07/05 09:29:09;;;;;;;0.10;0.10;;;13.50;99.90;;;;;;5032912;28;20091;-67
2023/07/05 09:31:37;;;;;;;0.10;0.10;;;13.50;99.90;;;;;;5045141;28;20067;-69
2023/07/05 09:34:54;;;;;;;0.10;0.10;;;13.50;99.90;;;;;;5015679;28;20063;-68
2023/07/05 09:37:34;;;;;;;1.58;0.20;;;13.70;99.90;;;;;;5037073;28;20044;-68
2023/07/05 09:40:22;;;;;;;3.40;0.40;;;14.20;99.90;;;;;;5047223;28;20119;-66
2023/07/05 09:43:06;;;;;;;0.70;0.22;;;14.70;99.90;;;;;;5049168;28;20076;-69
2023/07/05 09:45:33;;;;;;;0.45;0.10;;;15.10;99.90;;;;;;5046990;28;20053;-69
2023/07/05 09:48:01;;;;;;;0.90;0.13;;;15.40;99.90;;;;;;5030614;28;20033;-68
2023/07/05 09:50:30;;;;;;;1.23;0.20;;;15.60;99.90;;;;;;5047528;28;20043;-67
2023/07/05 09:53:14;;;;;;;0.98;0.38;;;15.70;99.90;;;;;;5047836;28;20115;-67
2023/07/05 09:56:13;;;;;;;2.70;0.50;;;15.60;99.90;;;;;;5032403;28;20041;-66
2023/07/05 09:58:44;;;;;;;2.63;0.10;;;15.30;99.90;;;;;;5050105;28;20048;-66
2023/07/05 10:01:23;;;;;;;0.22;0.20;;;15.10;99.90;;;;;;5067395;28;20045;-67
2023/07/05 10:04:02;;;;;;;3.13;0.22;;;14.80;99.90;;;;;;5068896;28;20444;-67
2023/07/05 10:06:40;;;;;;;0.60;0.10;;;14.80;99.90;;;;;;5070042;28;20123;-68
2023/07/05 10:09:21;;;;;;;3.65;0.32;;;14.70;99.90;;;;;;5069458;28;20048;-67
2023/07/05 10:11:56;;;;;;;2.72;0.20;;;14.70;99.90;;;;;;5068524;28;20043;-67
2023/07/05 10:14:32;;;;;;;2.33;0.30;;;14.60;99.90;;;;;;5067522;28;20044;-66
2023/07/05 10:17:11;;;;;;;0.17;0.10;;;14.60;99.90;;;;;;5069363;28;20109;-65
2023/07/05 10:19:50;;;;;;;2.80;0.20;;;14.60;99.90;;;;;;5060783;28;20037;-68
2023/07/05 10:22:26;;;;;;;0.43;0.20;;;14.70;99.90;;;;;;5031423;28;20045;-67
2023/07/05 10:25:14;;;;;;;1.65;0.70;;;14.90;99.90;;;;;;5051759;28;20107;-67
2023/07/05 10:27:50;;;;;;;2.08;0.80;;;15.00;99.90;;;;;;5032628;28;20053;-68
2023/07/05 10:30:25;;;;;;;2.63;0.43;;;15.00;99.90;;;;;;5031807;28;20110;-67
2023/07/05 10:33:27;;;;;;;3.42;0.57;;;15.00;99.90;;;;;;5036581;28;20067;-67
2023/07/05 10:36:02;;;;;;;1.40;0.47;;;15.10;99.90;;;;;;5071996;28;20068;-67
2023/07/05 10:38:34;;;;;;;0.52;0.40;;;15.20;99.90;;;;;;5073574;28;20085;-67
2023/07/05 10:41:25;;;;;;;1.55;0.30;;;15.50;99.90;;;;;;5055959;28;20132;-68
2023/07/05 10:44:00;;;;;;;3.00;0.60;;;16.10;99.90;;;;;;5058759;28;20129;-67
2023/07/05 10:46:31;;;;;;;1.90;0.70;;;16.50;99.90;;;;;;5053485;28;20377;-68
2023/07/05 10:49:10;;;;;;;1.75;0.40;;;16.70;99.90;;;;;;5037600;28;20047;-68
2023/07/05 10:51:47;;;;;;;3.75;0.50;;;16.70;99.90;;;;;;5051150;28;20057;-68
2023/07/05 10:54:43;;;;;;;1.45;0.35;;;16.50;99.90;;;;;;5036198;28;20225;-66
2023/07/05 10:57:30;;;;;;;3.97;0.40;;;16.50;99.90;;;;;;5051182;28;20147;-68
2023/07/05 11:00:17;;;;;;;1.67;0.77;;;16.60;99.90;;;;;;5064797;28;20536;-67
2023/07/05 11:02:50;;;;;;;1.27;0.50;;;16.70;99.90;;;;;;5055133;28;20124;-66
2023/07/05 11:05:24;;;;;;;0.52;0.45;;;16.50;99.90;;;;;;5072272;28;20086;-66
2023/07/05 11:07:54;;;;;;;6.18;0.70;;;16.30;99.90;;;;;;5071027;28;20049;-65
2023/07/05 11:10:25;;;;;;;3.03;0.30;;;15.80;99.90;;;;;;5070799;28;20040;-65
2023/07/05 11:12:53;;;;;;;1.30;0.50;;;15.20;99.90;;;;;;5036468;28;20086;-66
2023/07/05 11:15:21;;;;;;;2.60;0.40;;;14.80;99.90;;;;;;5070727;28;20036;-63
2023/07/05 11:17:50;;;;;;;0.52;0.30;;;14.40;99.90;;;;;;5053790;28;20098;-65
2023/07/05 11:20:43;;;;;;;5.70;0.80;;;14.10;99.90;;;;;;5072006;28;20114;-63
2023/07/05 11:23:13;;;;;;;1.08;0.63;;;13.90;99.90;;;;;;5070698;28;20064;-63
2023/07/05 11:25:58;;;;;;;1.33;0.50;;;13.70;99.90;;;;;;5070348;28;20038;-63
2023/07/05 11:28:43;;;;;;;0.55;0.35;;;13.60;99.90;;;;;;5066421;28;20120;-65
2023/07/05 11:31:29;;;;;;;2.83;0.70;;;13.50;99.90;;;;;;5066969;28;20041;-67
2023/07/05 11:34:20;;;;;;;0.75;0.25;;;13.30;99.90;;;;;;5061890;28;20125;-64
2023/07/05 11:36:49;;;;;;;0.45;0.20;;;13.10;99.90;;;;;;5052399;28;20060;-65
2023/07/05 11:39:43;;;;;;;1.85;0.40;;;13.00;99.90;;;;;;5034844;28;20205;-66
2023/07/05 11:42:12;;;;;;;0.55;0.30;;;12.90;99.90;;;;;;5070254;28;20040;-66
2023/07/05 11:45:13;;;;;;;2.53;0.55;;;12.90;99.90;;;;;;5072245;28;20047;-66
2023/07/05 11:47:48;;;;;;;1.25;0.45;;;12.80;99.90;;;;;;5070688;28;20085;-66
2023/07/05 11:50:23;;;;;;;3.33;1.30;;;12.70;99.90;;;;;;5072345;28;20048;-68
2023/07/05 11:53:06;;;;;;;1.55;0.40;;;12.80;99.90;;;;;;5053858;28;20049;-66
2023/07/05 11:55:39;;;;;;;0.73;0.40;;;12.80;99.90;;;;;;5052167;28;20158;-66
2023/07/05 11:58:36;;;;;;;0.95;0.55;;;12.90;99.90;;;;;;5039256;28;20107;-67
2023/07/05 12:01:12;;;;;;;0.35;0.20;;;12.90;99.90;;;;;;5033837;28;20128;-67
2023/07/05 12:03:50;;;;;;;3.45;0.50;;;12.90;99.90;;;;;;5046387;28;20041;-66
2023/07/05 12:06:21;;;;;;;7.72;1.40;;;12.90;99.90;;;;;;5034332;28;20051;-67
2023/07/05 12:09:02;;;;;;;2.03;0.60;;;12.90;99.90;;;;;;5051555;28;20045;-65
2023/07/05 12:11:42;;;;;;;0.95;0.57;;;13.00;99.90;;;;;;5052155;28;20045;-65
2023/07/05 12:14:14;;;;;;;2.50;0.80;;;13.10;99.90;;;;;;5033436;28;20052;-64
2023/07/05 12:16:47;;;;;;;6.43;0.95;;;13.10;99.90;;;;;;5052089;28;20033;-67
2023/07/05 12:19:38;;;;;;;2.55;0.82;;;13.10;99.90;;;;;;5051610;28;20041;-65
2023/07/05 12:22:16;;;;;;;1.52;0.80;;;13.10;99.90;;;;;;5049888;28;20544;-66
2023/07/05 12:24:50;;;;;;;3.30;1.08;;;13.10;99.90;;;;;;5051935;28;20055;-67
2023/07/05 12:27:31;;;;;;;1.63;0.55;;;13.20;99.90;;;;;;5057058;28;20068;-66
2023/07/05 12:29:59;;;;;;;3.03;0.65;;;13.30;99.90;;;;;;5057681;28;20044;-66
2023/07/05 12:32:28;;;;;;;6.97;1.23;;;13.30;99.90;;;;;;5057663;28;20083;-67
2023/07/05 12:35:12;;;;;;;0.75;0.35;;;13.40;99.90;;;;;;5049599;28;20494;-66
2023/07/05 12:37:38;;;;;;;1.33;0.50;;;13.40;99.90;;;;;;5033831;28;20055;-66
2023/07/05 12:40:19;;;;;;;1.35;0.35;;;13.40;99.90;;;;;;5051521;28;20041;-67
2023/07/05 12:43:02;;;;;;;2.97;0.77;;;13.40;99.90;;;;;;5050693;28;20040;-67
2023/07/05 12:45:33;;;;;;;0.52;0.40;;;13.50;99.90;;;;;;5051410;28;20049;-66
2023/07/05 12:48:14;;;;;;;2.30;0.82;;;13.50;99.90;;;;;;5050119;28;20119;-66
2023/07/05 12:50:41;;;;;;;4.65;0.60;;;13.60;99.90;;;;;;5049142;28;20041;-66
2023/07/05 12:53:14;;;;;;;1.10;0.73;;;13.70;99.90;;;;;;5050958;28;20051;-66
2023/07/05 12:55:48;;;;;;;1.00;0.80;;;13.80;99.90;;;;;;5049999;28;20044;-64
2023/07/05 12:58:14;;;;;;;2.20;0.80;;;13.80;99.90;;;;;;5036772;28;20424;-66
2023/07/05 13:00:49;;;;;;;0.63;0.30;;;13.80;99.90;;;;;;5035472;28;20071;-65
2023/07/05 13:03:16;;;;;;;1.30;0.90;;;13.80;99.90;;;;;;5049109;28;20045;-66
2023/07/05 13:05:45;;;;;;;2.25;0.93;;;13.80;99.90;;;;;;5050508;28;20428;-65
2023/07/05 13:08:14;;;;;;;1.42;0.65;;;13.90;99.90;;;;;;5033039;28;20037;-66
2023/07/05 13:10:40;;;;;;;6.25;1.00;;;13.90;99.90;;;;;;5049864;28;20696;-65
2023/07/05 13:13:34;;;;;;;2.65;1.02;;;13.90;99.90;;;;;;5049369;28;20040;-65
2023/07/05 13:16:23;;;;;;;3.08;0.95;;;13.90;99.90;;;;;;5069246;28;20562;-65
2023/07/05 13:19:05;;;;;;;2.42;0.70;;;13.90;99.90;;;;;;5068988;28;20058;-66
2023/07/05 13:21:46;;;;;;;1.58;0.98;;;13.80;99.90;;;;;;5069304;28;20048;-67
2023/07/05 13:24:27;;;;;;;1.08;0.70;;;13.80;99.90;;;;;;5056119;28;20190;-70